createdAt,value
2022-09-04T00:00:17.648Z,12.11
2022-09-04T00:01:17.658Z,11.94
2022-09-04T00:02:17.656Z,12.28
2022-09-04T00:03:17.654Z,12.28
2022-09-04T00:04:17.744Z,12.11
2022-09-04T00:05:18.997Z,11.94
2022-09-04T00:06:17.660Z,12.11
2022-09-04T00:07:17.658Z,12.11
2022-09-04T00:08:17.675Z,11.94
2022-09-04T00:09:17.658Z,12.11
2022-09-04T00:10:17.669Z,12.11
2022-09-04T00:11:17.665Z,12.11
2022-09-04T00:12:17.659Z,11.94
2022-09-04T00:13:17.667Z,12.28
2022-09-04T00:14:17.680Z,12.11
2022-09-04T00:15:17.667Z,11.83
2022-09-04T00:16:17.693Z,11.94
2022-09-04T00:17:17.671Z,12.11
2022-09-04T00:18:17.688Z,11.83
2022-09-04T00:19:17.676Z,12.28
2022-09-04T00:20:17.677Z,12.28
2022-09-04T00:21:17.674Z,11.94
2022-09-04T00:22:17.671Z,12.11
2022-09-04T00:23:17.674Z,12.28
2022-09-04T00:24:17.681Z,12.28
2022-09-04T00:25:17.694Z,12.28
2022-09-04T00:26:17.686Z,11.72
2022-09-04T00:27:17.677Z,12.28
2022-09-04T00:28:17.748Z,12.11
2022-09-04T00:29:17.687Z,11.94
2022-09-04T00:30:17.677Z,12.28
2022-09-04T00:31:17.738Z,12.11
2022-09-04T00:32:17.685Z,12.11
2022-09-04T00:33:17.684Z,12.11
2022-09-04T00:34:17.685Z,12.11
2022-09-04T00:35:17.683Z,12.28
2022-09-04T00:36:17.695Z,11.94
2022-09-04T00:37:17.692Z,12.11
2022-09-04T00:38:17.800Z,11.83
2022-09-04T00:39:17.688Z,11.94
2022-09-04T00:40:17.690Z,11.94
2022-09-04T00:41:17.695Z,11.94
2022-09-04T00:42:17.687Z,12.28
2022-09-04T00:43:17.698Z,11.94
2022-09-04T00:44:17.693Z,11.94
2022-09-04T00:45:17.695Z,11.94
2022-09-04T00:46:17.764Z,11.94
2022-09-04T00:47:17.696Z,11.94
2022-09-04T00:48:17.769Z,11.94
2022-09-04T00:49:17.704Z,11.83
2022-09-04T00:50:17.700Z,11.83
2022-09-04T00:51:17.708Z,11.83
2022-09-04T00:52:17.705Z,11.94
2022-09-04T00:53:17.701Z,12.11
2022-09-04T00:54:17.707Z,11.83
2022-09-04T00:55:17.717Z,11.83
2022-09-04T00:56:17.720Z,11.83
2022-09-04T00:57:17.709Z,11.72
2022-09-04T00:58:17.745Z,11.83
2022-09-04T00:59:17.712Z,11.83
2022-09-04T01:00:17.706Z,11.83
2022-09-04T01:01:17.768Z,11.83
2022-09-04T01:02:17.815Z,11.94
2022-09-04T01:03:17.711Z,11.83
2022-09-04T01:04:17.711Z,11.94
2022-09-04T01:05:19.717Z,11.83
2022-09-04T01:06:17.715Z,11.83
2022-09-04T01:07:17.713Z,11.83
2022-09-04T01:08:17.728Z,11.83
2022-09-04T01:09:17.713Z,11.61
2022-09-04T01:10:17.712Z,11.94
2022-09-04T01:11:17.723Z,11.83
2022-09-04T01:12:17.723Z,11.83
2022-09-04T01:13:17.718Z,11.72
2022-09-04T01:14:17.715Z,11.83
2022-09-04T01:15:17.721Z,11.83
2022-09-04T01:16:17.746Z,11.61
2022-09-04T01:17:17.725Z,11.83
2022-09-04T01:18:17.770Z,11.83
2022-09-04T01:19:17.718Z,11.83
2022-09-04T01:20:17.725Z,11.83
2022-09-04T01:21:17.736Z,11.83
2022-09-04T01:22:17.718Z,11.83
2022-09-04T01:23:17.730Z,11.72
2022-09-04T01:24:17.720Z,11.83
2022-09-04T01:25:17.729Z,11.83
2022-09-04T01:26:17.733Z,11.83
2022-09-04T01:27:17.723Z,11.83
2022-09-04T01:28:17.765Z,11.83
2022-09-04T01:29:17.724Z,11.72
2022-09-04T01:30:17.721Z,11.83
2022-09-04T01:31:17.761Z,11.83
2022-09-04T01:32:17.724Z,11.28
2022-09-04T01:33:17.730Z,11.83
2022-09-04T01:34:17.723Z,11.83
2022-09-04T01:35:17.732Z,11.72
2022-09-04T01:36:17.726Z,11.72
2022-09-04T01:37:17.735Z,11.83
2022-09-04T01:38:17.751Z,11.72
2022-09-04T01:39:17.730Z,11.61
2022-09-04T01:40:17.739Z,11.72
2022-09-04T01:41:17.730Z,11.83
2022-09-04T01:42:17.727Z,11.61
2022-09-04T01:43:17.738Z,11.72
2022-09-04T01:44:17.729Z,11.83
2022-09-04T01:45:17.734Z,11.83
2022-09-04T01:46:17.726Z,11.83
2022-09-04T01:47:17.739Z,11.83
2022-09-04T01:48:17.803Z,11.83
2022-09-04T01:49:17.733Z,11.83
2022-09-04T01:50:17.742Z,11.61
2022-09-04T01:51:17.737Z,11.61
2022-09-04T01:52:17.743Z,11.72
2022-09-04T01:53:17.751Z,11.72
2022-09-04T01:54:17.746Z,11.83
2022-09-04T01:55:17.743Z,11.83
2022-09-04T01:56:17.748Z,11.83
2022-09-04T01:57:17.750Z,11.83
2022-09-04T01:58:17.791Z,11.83
2022-09-04T01:59:17.759Z,11.83
2022-09-04T02:00:17.753Z,11.61
2022-09-04T02:01:17.753Z,11.72
2022-09-04T02:02:17.868Z,11.83
2022-09-04T02:03:17.755Z,11.83
2022-09-04T02:04:17.754Z,11.83
2022-09-04T02:05:17.756Z,11.83
2022-09-04T02:06:17.758Z,11.83
2022-09-04T02:07:17.763Z,11.83
2022-09-04T02:08:17.809Z,11.83
2022-09-04T02:09:17.769Z,11.83
2022-09-04T02:10:17.763Z,11.61
2022-09-04T02:11:17.763Z,11.72
2022-09-04T02:12:19.032Z,11.61
2022-09-04T02:13:17.772Z,11.83
2022-09-04T02:14:17.770Z,11.61
2022-09-04T02:15:17.777Z,11.83
2022-09-04T02:16:17.827Z,11.61
2022-09-04T02:17:17.782Z,11.83
2022-09-04T02:18:17.829Z,11.83
2022-09-04T02:19:17.787Z,11.72
2022-09-04T02:20:17.782Z,11.83
2022-09-04T02:21:17.797Z,11.83
2022-09-04T02:22:17.797Z,11.83
2022-09-04T02:23:17.800Z,11.61
2022-09-04T02:24:17.798Z,11.83
2022-09-04T02:25:17.799Z,11.72
2022-09-04T02:26:17.803Z,11.83
2022-09-04T02:27:17.799Z,11.83
2022-09-04T02:28:17.805Z,11.94
2022-09-04T02:29:17.807Z,11.83
2022-09-04T02:30:17.803Z,11.94
2022-09-04T02:31:17.857Z,11.83
2022-09-04T02:32:17.808Z,11.94
2022-09-04T02:33:17.819Z,11.94
2022-09-04T02:34:17.803Z,11.83
2022-09-04T02:35:17.806Z,11.83
2022-09-04T02:36:17.804Z,11.83
2022-09-04T02:37:17.816Z,11.94
2022-09-04T02:38:17.883Z,11.83
2022-09-04T02:39:17.819Z,11.94
2022-09-04T02:40:17.820Z,11.72
2022-09-04T02:41:17.823Z,11.83
2022-09-04T02:42:17.817Z,11.72
2022-09-04T02:43:17.819Z,11.83
2022-09-04T02:44:17.827Z,11.83
2022-09-04T02:45:17.826Z,11.83
2022-09-04T02:46:17.866Z,11.83
2022-09-04T02:47:17.835Z,11.83
2022-09-04T02:48:17.861Z,12.11
2022-09-04T02:49:17.831Z,11.83
2022-09-04T02:50:17.833Z,11.83
2022-09-04T02:51:17.836Z,11.83
2022-09-04T02:52:17.833Z,11.83
2022-09-04T02:53:18.450Z,11.83
2022-09-04T02:54:17.841Z,11.72
2022-09-04T02:55:17.893Z,11.83
2022-09-04T02:56:17.839Z,11.83
2022-09-04T02:57:17.844Z,11.61
2022-09-04T02:58:17.849Z,11.83
2022-09-04T02:59:17.845Z,11.83
2022-09-04T03:00:18.201Z,11.83
2022-09-04T03:01:17.878Z,11.61
2022-09-04T03:02:17.888Z,11.83
2022-09-04T03:03:17.854Z,11.94
2022-09-04T03:04:17.861Z,11.61
2022-09-04T03:05:17.859Z,11.83
2022-09-04T03:06:17.861Z,11.83
2022-09-04T03:07:17.864Z,11.83
2022-09-04T03:08:17.900Z,11.61
2022-09-04T03:09:17.857Z,11.83
2022-09-04T03:10:17.862Z,11.61
2022-09-04T03:11:17.869Z,11.83
2022-09-04T03:12:17.865Z,11.83
2022-09-04T03:13:17.864Z,11.83
2022-09-04T03:14:17.882Z,11.83
2022-09-04T03:15:17.877Z,11.83
2022-09-04T03:16:17.922Z,11.72
2022-09-04T03:17:17.881Z,11.83
2022-09-04T03:18:17.955Z,11.83
2022-09-04T03:19:17.877Z,11.72
2022-09-04T03:20:17.873Z,11.83
2022-09-04T03:21:17.878Z,11.72
2022-09-04T03:22:17.872Z,11.61
2022-09-04T03:23:17.872Z,11.83
2022-09-04T03:24:17.882Z,11.83
2022-09-04T03:25:17.890Z,11.72
2022-09-04T03:26:17.887Z,11.83
2022-09-04T03:27:17.902Z,11.83
2022-09-04T03:28:17.947Z,11.83
2022-09-04T03:29:17.893Z,11.83
2022-09-04T03:30:17.891Z,11.83
2022-09-04T03:31:17.948Z,11.72
2022-09-04T03:32:17.899Z,11.83
2022-09-04T03:33:17.903Z,11.83
2022-09-04T03:34:17.900Z,11.83
2022-09-04T03:35:17.894Z,11.72
2022-09-04T03:36:17.899Z,11.72
2022-09-04T03:37:17.907Z,11.83
2022-09-04T03:38:17.906Z,11.83
2022-09-04T03:39:17.904Z,11.83
2022-09-04T03:40:17.899Z,11.61
2022-09-04T03:41:17.915Z,11.83
2022-09-04T03:42:17.910Z,11.83
2022-09-04T03:43:17.907Z,11.61
2022-09-04T03:44:17.916Z,11.83
2022-09-04T03:45:17.904Z,11.83
2022-09-04T03:46:17.947Z,11.61
2022-09-04T03:47:17.904Z,11.61
2022-09-04T03:48:17.916Z,11.83
2022-09-04T03:49:17.917Z,11.83
2022-09-04T03:50:17.918Z,11.83
2022-09-04T03:51:17.911Z,11.83
2022-09-04T03:52:17.921Z,11.72
2022-09-04T03:53:17.923Z,11.83
2022-09-04T03:54:17.921Z,11.72
2022-09-04T03:55:17.919Z,11.83
2022-09-04T03:56:17.915Z,11.72
2022-09-04T03:57:17.920Z,11.83
2022-09-04T03:58:17.954Z,11.83
2022-09-04T03:59:17.933Z,11.83
2022-09-04T04:00:17.927Z,11.72
2022-09-04T04:01:20.569Z,11.72
2022-09-04T04:02:17.933Z,11.83
2022-09-04T04:03:17.987Z,11.61
2022-09-04T04:04:17.933Z,11.72
2022-09-04T04:05:17.933Z,11.83
2022-09-04T04:06:17.922Z,11.72
2022-09-04T04:07:17.933Z,11.72
2022-09-04T04:08:17.941Z,11.83
2022-09-04T04:09:17.929Z,11.83
2022-09-04T04:10:17.932Z,11.72
2022-09-04T04:11:17.935Z,11.83
2022-09-04T04:12:17.931Z,11.83
2022-09-04T04:13:17.935Z,11.83
2022-09-04T04:14:17.932Z,11.61
2022-09-04T04:15:17.932Z,11.83
2022-09-04T04:16:17.982Z,11.83
2022-09-04T04:17:20.490Z,11.72
2022-09-04T04:18:17.989Z,11.83
2022-09-04T04:19:17.936Z,11.61
2022-09-04T04:20:17.950Z,11.72
2022-09-04T04:21:17.937Z,11.83
2022-09-04T04:22:17.939Z,11.83
2022-09-04T04:23:17.949Z,11.72
2022-09-04T04:24:17.953Z,11.72
2022-09-04T04:25:17.945Z,11.61
2022-09-04T04:26:17.941Z,11.83
2022-09-04T04:27:17.951Z,11.83
2022-09-04T04:28:17.969Z,11.44
2022-09-04T04:29:17.951Z,11.83
2022-09-04T04:30:17.951Z,11.83
2022-09-04T04:31:17.977Z,11.83
2022-09-04T04:32:17.953Z,11.72
2022-09-04T04:33:17.953Z,11.72
2022-09-04T04:34:17.956Z,11.83
2022-09-04T04:35:17.965Z,11.72
2022-09-04T04:36:17.958Z,11.72
2022-09-04T04:37:17.956Z,11.44
2022-09-04T04:38:17.966Z,11.72
2022-09-04T04:39:17.956Z,11.72
2022-09-04T04:40:17.974Z,11.72
2022-09-04T04:41:17.961Z,11.72
2022-09-04T04:42:18.235Z,11.61
2022-09-04T04:43:17.963Z,11.83
2022-09-04T04:44:17.976Z,11.83
2022-09-04T04:45:17.966Z,11.83
2022-09-04T04:46:18.005Z,11.83
2022-09-04T04:47:17.974Z,11.72
2022-09-04T04:48:18.011Z,11.89
2022-09-04T04:49:17.974Z,11.83
2022-09-04T04:50:17.977Z,11.44
2022-09-04T04:51:17.978Z,11.72
2022-09-04T04:52:17.979Z,11.83
2022-09-04T04:53:17.988Z,11.83
2022-09-04T04:54:17.980Z,11.83
2022-09-04T04:55:17.975Z,11.61
2022-09-04T04:56:17.985Z,11.72
2022-09-04T04:57:17.982Z,11.83
2022-09-04T04:58:18.032Z,11.72
2022-09-04T04:59:17.985Z,11.94
2022-09-04T05:00:17.980Z,11.72
2022-09-04T05:01:18.042Z,11.83
2022-09-04T05:02:18.062Z,11.83
2022-09-04T05:03:17.985Z,11.83
2022-09-04T05:04:17.985Z,11.83
2022-09-04T05:05:17.986Z,11.61
2022-09-04T05:06:17.990Z,11.83
2022-09-04T05:07:17.984Z,11.83
2022-09-04T05:08:17.985Z,11.83
2022-09-04T05:09:17.987Z,11.83
2022-09-04T05:10:17.995Z,11.83
2022-09-04T05:11:17.999Z,11.83
2022-09-04T05:12:17.995Z,11.83
2022-09-04T05:13:17.998Z,11.83
2022-09-04T05:14:17.997Z,11.83
2022-09-04T05:15:18.004Z,11.72
2022-09-04T05:16:18.090Z,11.83
2022-09-04T05:17:18.001Z,11.83
2022-09-04T05:18:18.032Z,11.83
2022-09-04T05:19:18.000Z,11.83
2022-09-04T05:20:18.001Z,11.83
2022-09-04T05:21:18.006Z,11.72
2022-09-04T05:22:17.995Z,11.72
2022-09-04T05:23:18.008Z,11.83
2022-09-04T05:24:17.996Z,11.94
2022-09-04T05:25:18.009Z,11.83
2022-09-04T05:26:17.998Z,11.83
2022-09-04T05:27:18.011Z,11.94
2022-09-04T05:28:18.032Z,11.83
2022-09-04T05:29:18.002Z,11.72
2022-09-04T05:30:18.005Z,11.94
2022-09-04T05:31:18.035Z,11.83
2022-09-04T05:32:18.012Z,11.83
2022-09-04T05:33:18.013Z,11.83
2022-09-04T05:34:18.017Z,11.83
2022-09-04T05:35:18.013Z,11.72
2022-09-04T05:36:18.025Z,11.83
2022-09-04T05:37:18.011Z,11.72
2022-09-04T05:38:18.114Z,11.83
2022-09-04T05:39:18.016Z,11.83
2022-09-04T05:40:18.019Z,11.61
2022-09-04T05:41:18.016Z,11.61
2022-09-04T05:42:18.018Z,11.83
2022-09-04T05:43:18.011Z,11.83
2022-09-04T05:44:18.021Z,11.83
2022-09-04T05:45:18.013Z,11.72
2022-09-04T05:46:18.065Z,11.83
2022-09-04T05:47:18.021Z,11.94
2022-09-04T05:48:18.100Z,11.94
2022-09-04T05:49:18.009Z,11.94
2022-09-04T05:50:18.018Z,11.83
2022-09-04T05:51:18.017Z,11.83
2022-09-04T05:52:18.024Z,11.83
2022-09-04T05:53:18.019Z,11.83
2022-09-04T05:54:18.015Z,12.11
2022-09-04T05:55:18.021Z,11.83
2022-09-04T05:56:18.018Z,11.83
2022-09-04T05:57:18.023Z,12.11
2022-09-04T05:58:18.064Z,11.94
2022-09-04T05:59:18.018Z,11.94
2022-09-04T06:00:18.024Z,12.11
2022-09-04T06:01:18.020Z,11.94
2022-09-04T06:02:18.064Z,11.83
2022-09-04T06:03:18.107Z,12.11
2022-09-04T06:04:18.012Z,12.11
2022-09-04T06:05:18.026Z,12.11
2022-09-04T06:06:18.025Z,12.11
2022-09-04T06:07:18.026Z,12.28
2022-09-04T06:08:18.057Z,12.11
2022-09-04T06:09:18.027Z,12.11
2022-09-04T06:10:18.035Z,11.94
2022-09-04T06:11:18.024Z,12.28
2022-09-04T06:12:19.486Z,12.11
2022-09-04T06:13:18.031Z,12.11
2022-09-04T06:14:18.027Z,12.28
2022-09-04T06:15:18.029Z,12.28
2022-09-04T06:16:18.076Z,12.11
2022-09-04T06:17:18.030Z,12.28
2022-09-04T06:18:18.160Z,12.28
2022-09-04T06:19:18.031Z,12.44
2022-09-04T06:20:18.029Z,12.56
2022-09-04T06:21:18.038Z,12.28
2022-09-04T06:22:18.039Z,12.44
2022-09-04T06:23:18.047Z,12.56
2022-09-04T06:24:18.049Z,12.11
2022-09-04T06:25:18.041Z,12.72
2022-09-04T06:26:18.044Z,12.44
2022-09-04T06:27:18.042Z,12.44
2022-09-04T06:28:18.124Z,12.28
2022-09-04T06:29:18.048Z,12.44
2022-09-04T06:30:18.054Z,12.28
2022-09-04T06:31:18.083Z,12.56
2022-09-04T06:32:18.050Z,12.56
2022-09-04T06:33:18.049Z,12.44
2022-09-04T06:34:21.679Z,12.28
2022-09-04T06:35:18.050Z,12.28
2022-09-04T06:36:18.061Z,12.44
2022-09-04T06:37:18.060Z,12.28
2022-09-04T06:38:18.171Z,12.44
2022-09-04T06:39:18.058Z,12.28
2022-09-04T06:40:18.060Z,12.44
2022-09-04T06:41:18.063Z,12.72
2022-09-04T06:42:18.068Z,12.56
2022-09-04T06:43:18.071Z,12.72
2022-09-04T06:44:18.081Z,12.44
2022-09-04T06:45:18.076Z,12.72
2022-09-04T06:46:18.100Z,12.56
2022-09-04T06:47:18.072Z,12.89
2022-09-04T06:48:18.113Z,12.56
2022-09-04T06:49:18.089Z,12.89
2022-09-04T06:50:18.086Z,13.06
2022-09-04T06:51:18.080Z,12.89
2022-09-04T06:52:18.093Z,12.89
2022-09-04T06:53:18.088Z,13.17
2022-09-04T06:54:18.091Z,13.06
2022-09-04T06:55:18.095Z,12.89
2022-09-04T06:56:18.093Z,13.06
2022-09-04T06:57:18.097Z,13.06
2022-09-04T06:58:18.124Z,13.06
2022-09-04T06:59:18.098Z,13.06
2022-09-04T07:00:18.104Z,12.89
2022-09-04T07:01:18.183Z,13.06
2022-09-04T07:02:18.142Z,13.06
2022-09-04T07:03:18.107Z,13.06
2022-09-04T07:04:18.109Z,13.06
2022-09-04T07:05:18.111Z,13.06
2022-09-04T07:06:18.109Z,12.89
2022-09-04T07:07:18.117Z,12.89
2022-09-04T07:08:18.186Z,13.06
2022-09-04T07:09:18.119Z,12.89
2022-09-04T07:10:18.118Z,13.06
2022-09-04T07:11:18.112Z,13.06
2022-09-04T07:12:18.123Z,12.56
2022-09-04T07:13:18.124Z,13.06
2022-09-04T07:14:18.128Z,13.17
2022-09-04T07:15:18.125Z,13.17
2022-09-04T07:16:18.222Z,12.89
2022-09-04T07:17:18.128Z,13.28
2022-09-04T07:18:18.193Z,13.17
2022-09-04T07:19:18.125Z,13.33
2022-09-04T07:20:18.131Z,13.11
2022-09-04T07:21:18.130Z,13.33
2022-09-04T07:22:18.130Z,13.17
2022-09-04T07:23:18.133Z,13.33
2022-09-04T07:24:18.129Z,13.5
2022-09-04T07:25:18.133Z,13.67
2022-09-04T07:26:18.133Z,13.33
2022-09-04T07:27:18.139Z,13.33
2022-09-04T07:28:18.186Z,13.5
2022-09-04T07:29:19.777Z,13.33
2022-09-04T07:30:18.138Z,13.5
2022-09-04T07:31:18.247Z,13.5
2022-09-04T07:32:18.150Z,13.17
2022-09-04T07:33:18.150Z,13.67
2022-09-04T07:34:18.147Z,13.33
2022-09-04T07:35:18.146Z,13.67
2022-09-04T07:36:18.155Z,13.67
2022-09-04T07:37:18.166Z,13.67
2022-09-04T07:38:18.208Z,13.72
2022-09-04T07:39:18.164Z,13.67
2022-09-04T07:40:18.155Z,13.67
2022-09-04T07:41:18.156Z,13.67
2022-09-04T07:42:18.151Z,13.72
2022-09-04T07:43:18.163Z,13.17
2022-09-04T07:44:18.169Z,13.5
2022-09-04T07:45:18.155Z,13.5
2022-09-04T07:46:18.212Z,13.61
2022-09-04T07:47:18.171Z,13.67
2022-09-04T07:48:18.183Z,13.56
2022-09-04T07:49:18.172Z,13.83
2022-09-04T07:50:18.170Z,13.83
2022-09-04T07:51:18.176Z,14.06
2022-09-04T07:52:18.160Z,14.39
2022-09-04T07:53:18.169Z,14.39
2022-09-04T07:54:22.778Z,14.56
2022-09-04T07:55:18.169Z,14.56
2022-09-04T07:56:18.172Z,15.17
2022-09-04T07:57:18.182Z,15.56
2022-09-04T07:58:18.195Z,15.56
2022-09-04T07:59:18.173Z,15.72
2022-09-04T08:00:18.210Z,16.39
2022-09-04T08:01:18.245Z,16.83
2022-09-04T08:02:18.181Z,16.67
2022-09-04T08:03:18.180Z,16.5
2022-09-04T08:04:18.181Z,16.67
2022-09-04T08:05:18.264Z,16.67
2022-09-04T08:06:18.196Z,15.72
2022-09-04T08:07:18.190Z,15.72
2022-09-04T08:08:18.248Z,15.22
2022-09-04T08:09:18.195Z,15.39
2022-09-04T08:10:18.192Z,15.22
2022-09-04T08:11:18.194Z,15.28
2022-09-04T08:12:18.193Z,15.39
2022-09-04T08:13:18.187Z,15.22
2022-09-04T08:14:18.200Z,15.89
2022-09-04T08:15:18.196Z,15.28
2022-09-04T08:16:18.276Z,15.56
2022-09-04T08:17:18.199Z,15.56
2022-09-04T08:18:18.221Z,15.89
2022-09-04T08:19:18.200Z,16.06
2022-09-04T08:20:18.284Z,15.5
2022-09-04T08:21:18.192Z,16.39
2022-09-04T08:22:18.204Z,16.83
2022-09-04T08:23:18.199Z,16.83
2022-09-04T08:24:18.206Z,16.83
2022-09-04T08:25:18.209Z,16.67
2022-09-04T08:26:18.209Z,15.89
2022-09-04T08:27:18.211Z,16.06
2022-09-04T08:28:18.241Z,16.06
2022-09-04T08:29:18.210Z,16.22
2022-09-04T08:30:18.238Z,16.56
2022-09-04T08:31:18.269Z,17.28
2022-09-04T08:32:18.226Z,17.39
2022-09-04T08:33:18.219Z,17.5
2022-09-04T08:34:18.220Z,17
2022-09-04T08:35:18.215Z,17.89
2022-09-04T08:36:18.216Z,18.17
2022-09-04T08:37:18.481Z,17.83
2022-09-04T08:38:18.241Z,18.17
2022-09-04T08:39:18.220Z,17.67
2022-09-04T08:40:18.300Z,18.17
2022-09-04T08:41:18.221Z,18.61
2022-09-04T08:42:18.221Z,18.44
2022-09-04T08:43:18.220Z,17.83
2022-09-04T08:44:18.225Z,18.17
2022-09-04T08:45:18.230Z,18.78
2022-09-04T08:46:18.278Z,19.56
2022-09-04T08:47:18.233Z,19.44
2022-09-04T08:48:18.287Z,19.06
2022-09-04T08:49:18.234Z,18.17
2022-09-04T08:50:18.226Z,17.67
2022-09-04T08:51:18.234Z,17.83
2022-09-04T08:52:18.236Z,17.33
2022-09-04T08:53:18.237Z,17
2022-09-04T08:54:18.241Z,16.22
2022-09-04T08:55:18.231Z,16.56
2022-09-04T08:56:18.245Z,16.06
2022-09-04T08:57:18.233Z,16.39
2022-09-04T08:58:18.248Z,16.89
2022-09-04T08:59:18.234Z,17.17
2022-09-04T09:00:18.244Z,17
2022-09-04T09:01:18.342Z,16.72
2022-09-04T09:02:18.258Z,17
2022-09-04T09:03:18.245Z,17.17
2022-09-04T09:04:18.252Z,17.33
2022-09-04T09:05:18.243Z,17.5
2022-09-04T09:06:18.252Z,17
2022-09-04T09:07:18.248Z,16.56
2022-09-04T09:08:18.299Z,16.22
2022-09-04T09:09:18.249Z,16.56
2022-09-04T09:10:18.252Z,16.72
2022-09-04T09:11:18.245Z,16.06
2022-09-04T09:12:18.263Z,16.22
2022-09-04T09:13:18.256Z,16.56
2022-09-04T09:14:18.266Z,16.22
2022-09-04T09:15:18.251Z,16.89
2022-09-04T09:16:18.274Z,16.39
2022-09-04T09:17:18.803Z,16.72
2022-09-04T09:18:18.289Z,16.72
2022-09-04T09:19:18.255Z,17.33
2022-09-04T09:20:20.001Z,16.22
2022-09-04T09:21:18.254Z,15.78
2022-09-04T09:22:18.265Z,16.06
2022-09-04T09:23:18.688Z,16.06
2022-09-04T09:24:18.267Z,16.22
2022-09-04T09:25:18.258Z,16.06
2022-09-04T09:26:18.258Z,15.78
2022-09-04T09:27:18.266Z,16.06
2022-09-04T09:28:18.275Z,16.39
2022-09-04T09:29:18.272Z,16.56
2022-09-04T09:30:18.265Z,16.72
2022-09-04T09:31:18.385Z,16.39
2022-09-04T09:32:18.278Z,16.56
2022-09-04T09:33:18.328Z,16.72
2022-09-04T09:34:18.273Z,17
2022-09-04T09:35:18.279Z,16.56
2022-09-04T09:36:18.279Z,16.22
2022-09-04T09:37:18.274Z,16.72
2022-09-04T09:38:18.277Z,16.89
2022-09-04T09:39:18.292Z,16.89
2022-09-04T09:40:18.285Z,16.56
2022-09-04T09:41:18.279Z,16.89
2022-09-04T09:42:18.276Z,16.56
2022-09-04T09:43:18.275Z,16.22
2022-09-04T09:44:18.280Z,16.72
2022-09-04T09:45:18.283Z,17
2022-09-04T09:46:18.323Z,16.89
2022-09-04T09:47:18.278Z,16.89
2022-09-04T09:48:18.286Z,17
2022-09-04T09:49:18.282Z,16.56
2022-09-04T09:50:18.290Z,17.17
2022-09-04T09:51:18.286Z,17
2022-09-04T09:52:18.298Z,16.56
2022-09-04T09:53:18.347Z,16.72
2022-09-04T09:54:18.284Z,16.56
2022-09-04T09:55:18.287Z,16.39
2022-09-04T09:56:18.284Z,17
2022-09-04T09:57:18.290Z,17.5
2022-09-04T09:58:18.296Z,17.17
2022-09-04T09:59:18.279Z,16.89
2022-09-04T10:00:18.295Z,17.5
2022-09-04T10:01:18.315Z,17.67
2022-09-04T10:02:18.351Z,17.83
2022-09-04T10:03:18.288Z,17.5
2022-09-04T10:04:18.292Z,17.83
2022-09-04T10:05:18.298Z,18.17
2022-09-04T10:06:18.290Z,17.83
2022-09-04T10:07:18.300Z,18.44
2022-09-04T10:08:19.120Z,18.94
2022-09-04T10:09:18.298Z,19.78
2022-09-04T10:10:18.300Z,19.44
2022-09-04T10:11:18.289Z,19.06
2022-09-04T10:12:18.305Z,19.44
2022-09-04T10:13:18.386Z,18.44
2022-09-04T10:14:20.261Z,17.33
2022-09-04T10:15:18.302Z,17.5
2022-09-04T10:16:18.327Z,17.17
2022-09-04T10:17:18.302Z,17.94
2022-09-04T10:18:18.301Z,18.44
2022-09-04T10:19:18.309Z,18.78
2022-09-04T10:20:18.291Z,19.94
2022-09-04T10:21:18.298Z,19.94
2022-09-04T10:22:18.295Z,20.33
2022-09-04T10:23:18.336Z,20.56
2022-09-04T10:24:18.297Z,20.83
2022-09-04T10:25:18.297Z,21
2022-09-04T10:26:18.298Z,20.33
2022-09-04T10:27:18.299Z,19.56
2022-09-04T10:28:18.303Z,18.78
2022-09-04T10:29:18.297Z,19.06
2022-09-04T10:30:18.303Z,19
2022-09-04T10:31:18.307Z,18.89
2022-09-04T10:32:18.307Z,19.28
2022-09-04T10:33:18.301Z,18.94
2022-09-04T10:34:18.304Z,19.56
2022-09-04T10:35:18.305Z,19.83
2022-09-04T10:36:18.309Z,19.61
2022-09-04T10:37:18.308Z,19.61
2022-09-04T10:38:18.301Z,19.94
2022-09-04T10:39:18.362Z,19.83
2022-09-04T10:40:18.296Z,19.33
2022-09-04T10:41:18.305Z,19.11
2022-09-04T10:42:18.297Z,20.11
2022-09-04T10:43:18.359Z,19.94
2022-09-04T10:44:18.319Z,20.56
2022-09-04T10:45:18.317Z,21.06
2022-09-04T10:46:22.598Z,21.06
2022-09-04T10:47:18.316Z,21.22
2022-09-04T10:48:18.316Z,21.06
2022-09-04T10:49:18.326Z,21.72
2022-09-04T10:50:18.319Z,21.39
2022-09-04T10:51:18.318Z,20.11
2022-09-04T10:52:18.324Z,20.22
2022-09-04T10:53:18.340Z,20.11
2022-09-04T10:54:18.326Z,20.56
2022-09-04T10:55:18.328Z,20.56
2022-09-04T10:56:18.330Z,21.06
2022-09-04T10:57:18.333Z,21.06
2022-09-04T10:58:18.336Z,22.06
2022-09-04T10:59:18.345Z,21.22
2022-09-04T11:00:18.334Z,21.89
2022-09-04T11:01:18.398Z,22.61
2022-09-04T11:02:18.434Z,22.61
2022-09-04T11:03:18.448Z,22.39
2022-09-04T11:04:18.340Z,21.56
2022-09-04T11:05:18.336Z,21.56
2022-09-04T11:06:18.351Z,21.06
2022-09-04T11:07:18.347Z,21.22
2022-09-04T11:08:18.391Z,22.06
2022-09-04T11:09:18.356Z,22.61
2022-09-04T11:10:18.351Z,22.22
2022-09-04T11:11:18.344Z,22.94
2022-09-04T11:12:18.345Z,22.61
2022-09-04T11:13:18.391Z,22.39
2022-09-04T11:14:18.358Z,22.22
2022-09-04T11:15:18.355Z,23.28
2022-09-04T11:16:18.416Z,22.39
2022-09-04T11:17:18.355Z,22.61
2022-09-04T11:18:18.358Z,23.11
2022-09-04T11:19:18.358Z,23.11
2022-09-04T11:20:18.663Z,23.11
2022-09-04T11:21:18.353Z,23.67
2022-09-04T11:22:18.354Z,24
2022-09-04T11:23:18.412Z,23.28
2022-09-04T11:24:18.373Z,22.06
2022-09-04T11:25:18.368Z,22.39
2022-09-04T11:26:18.369Z,22.94
2022-09-04T11:27:18.368Z,22.94
2022-09-04T11:28:18.369Z,23.11
2022-09-04T11:29:18.372Z,22.39
2022-09-04T11:30:18.373Z,23.11
2022-09-04T11:31:18.402Z,23.28
2022-09-04T11:32:18.379Z,24.17
2022-09-04T11:33:18.442Z,22.94
2022-09-04T11:34:18.378Z,23.44
2022-09-04T11:35:18.380Z,24
2022-09-04T11:36:18.391Z,24.17
2022-09-04T11:37:18.387Z,23.67
2022-09-04T11:38:18.389Z,23.67
2022-09-04T11:39:18.390Z,23.44
2022-09-04T11:40:18.402Z,23.11
2022-09-04T11:41:18.409Z,22.61
2022-09-04T11:42:18.393Z,22.61
2022-09-04T11:43:18.422Z,22.06
2022-09-04T11:44:18.403Z,22.22
2022-09-04T11:45:18.399Z,22.22
2022-09-04T11:46:18.457Z,23.28
2022-09-04T11:47:18.404Z,24.17
2022-09-04T11:48:18.393Z,23.67
2022-09-04T11:49:18.402Z,23.28
2022-09-04T11:50:18.410Z,22.94
2022-09-04T11:51:18.405Z,22.06
2022-09-04T11:52:18.407Z,22.06
2022-09-04T11:53:18.400Z,22.39
2022-09-04T11:54:18.409Z,22.06
2022-09-04T11:55:18.410Z,21.72
2022-09-04T11:56:18.419Z,22.06
2022-09-04T11:57:18.407Z,22.61
2022-09-04T11:58:18.404Z,23.11
2022-09-04T11:59:18.423Z,23.11
2022-09-04T12:00:18.408Z,24.17
2022-09-04T12:01:18.411Z,24.67
2022-09-04T12:02:18.473Z,24.33
2022-09-04T12:03:18.443Z,24.83
2022-09-04T12:04:18.478Z,24.89
2022-09-04T12:05:18.423Z,25.44
2022-09-04T12:06:18.418Z,25.22
2022-09-04T12:07:18.421Z,25.61
2022-09-04T12:08:18.495Z,25.44
2022-09-04T12:09:18.419Z,25.06
2022-09-04T12:10:18.429Z,25.44
2022-09-04T12:11:18.424Z,25.78
2022-09-04T12:12:18.428Z,24.5
2022-09-04T12:13:18.426Z,23.11
2022-09-04T12:14:18.432Z,23.28
2022-09-04T12:15:18.424Z,22.78
2022-09-04T12:16:18.505Z,22.94
2022-09-04T12:17:18.433Z,23.28
2022-09-04T12:18:18.434Z,23.28
2022-09-04T12:19:18.426Z,23.11
2022-09-04T12:20:18.426Z,22.39
2022-09-04T12:21:18.430Z,22.39
2022-09-04T12:22:18.440Z,21.72
2022-09-04T12:23:18.496Z,21.72
2022-09-04T12:24:18.440Z,21.72
2022-09-04T12:25:18.438Z,21.56
2022-09-04T12:26:18.439Z,21.22
2022-09-04T12:27:18.431Z,21.72
2022-09-04T12:28:18.450Z,21.72
2022-09-04T12:29:18.443Z,21.56
2022-09-04T12:30:18.441Z,21.22
2022-09-04T12:31:18.464Z,20.89
2022-09-04T12:32:18.440Z,21.06
2022-09-04T12:33:18.501Z,21.72
2022-09-04T12:34:18.443Z,21.72
2022-09-04T12:35:18.446Z,21.72
2022-09-04T12:36:18.451Z,21.56
2022-09-04T12:37:18.450Z,21.39
2022-09-04T12:38:18.450Z,21.72
2022-09-04T12:39:18.454Z,21.72
2022-09-04T12:40:18.441Z,21.94
2022-09-04T12:41:18.456Z,21.72
2022-09-04T12:42:18.459Z,22.22
2022-09-04T12:43:18.538Z,22.06
2022-09-04T12:44:18.458Z,22.06
2022-09-04T12:45:18.514Z,22.22
2022-09-04T12:46:18.519Z,22.39
2022-09-04T12:47:18.460Z,22.61
2022-09-04T12:48:18.463Z,22.22
2022-09-04T12:49:18.457Z,21.72
2022-09-04T12:50:18.461Z,21.22
2022-09-04T12:51:18.456Z,21.06
2022-09-04T12:52:18.464Z,21.22
2022-09-04T12:53:18.496Z,21.22
2022-09-04T12:54:18.463Z,21.56